Time;durP1;ratioP1;P1;durP2;ratioP2;P2;SDS_P1;SDS_P2;PMS_P1;PMS_P2;Temp;Humidity;BMP_temperature;BMP_pressure;BME280_temperature;BME280_humidity;BME280_pressure;Samples;Min_cycle;Max_cycle;Signal;HPM_P1;HPM_P2
2021/12/31 00:00:48;;;;;;;11.48;2.50;;;12.80;99.90;;;;;;5082460;28;20051;-74
2021/12/31 00:03:17;;;;;;;14.63;2.53;;;12.90;99.90;;;;;;5077694;28;20092;-74
2021/12/31 00:05:44;;;;;;;16.58;2.88;;;12.90;99.90;;;;;;5083574;28;20062;-74
2021/12/31 00:08:09;;;;;;;13.93;2.95;;;12.80;99.90;;;;;;5103719;28;20043;-74
2021/12/31 00:10:35;;;;;;;14.13;2.33;;;12.90;99.90;;;;;;5083042;28;20036;-74
2021/12/31 00:13:01;;;;;;;8.98;1.58;;;12.90;99.90;;;;;;5097684;28;20036;-73
2021/12/31 00:15:27;;;;;;;10.63;2.30;;;12.90;99.90;;;;;;5084094;28;20381;-74
2021/12/31 00:17:52;;;;;;;12.27;3.88;;;12.90;99.90;;;;;;5083853;28;20130;-74
2021/12/31 00:20:22;;;;;;;16.67;2.63;;;12.90;99.90;;;;;;5099738;28;20139;-73
2021/12/31 00:23:04;;;;;;;11.82;2.42;;;12.90;99.90;;;;;;5079399;28;20468;-74
2021/12/31 00:25:32;;;;;;;12.80;2.10;;;12.90;99.90;;;;;;5082320;28;20096;-74
2021/12/31 00:27:58;;;;;;;11.60;2.03;;;12.90;99.90;;;;;;5082890;28;20036;-74
2021/12/31 00:30:23;;;;;;;14.07;2.78;;;12.90;99.90;;;;;;5100043;28;20032;-74
2021/12/31 00:32:50;;;;;;;12.70;3.42;;;12.90;99.90;;;;;;5079495;28;20044;-73
2021/12/31 00:35:15;;;;;;;16.83;2.75;;;12.80;99.90;;;;;;5084556;28;20048;-74
2021/12/31 00:37:41;;;;;;;11.02;2.72;;;12.80;99.90;;;;;;5102945;28;20034;-73
2021/12/31 00:40:12;;;;;;;9.70;2.60;;;12.90;99.90;;;;;;5097562;28;20040;-74
2021/12/31 00:42:39;;;;;;;11.35;2.78;;;12.80;99.90;;;;;;5081916;28;20079;-74
2021/12/31 00:45:07;;;;;;;10.90;2.83;;;12.90;99.90;;;;;;5081792;28;20055;-74
2021/12/31 00:47:33;;;;;;;10.68;2.85;;;12.80;99.90;;;;;;5080893;28;20481;-74
2021/12/31 00:49:58;;;;;;;9.48;2.00;;;12.90;99.90;;;;;;5100140;28;20096;-73
2021/12/31 00:52:24;;;;;;;11.10;2.70;;;12.80;99.90;;;;;;5096065;28;20071;-74
2021/12/31 00:54:50;;;;;;;7.65;1.65;;;12.80;99.90;;;;;;5080321;28;20048;-74
2021/12/31 00:57:15;;;;;;;13.75;2.90;;;12.70;99.90;;;;;;5099319;28;20030;-74
2021/12/31 00:59:41;;;;;;;13.30;2.50;;;12.70;99.90;;;;;;5089217;28;20120;-73
2021/12/31 01:02:07;;;;;;;11.77;2.42;;;12.80;99.90;;;;;;5081968;28;20035;-74
2021/12/31 01:04:33;;;;;;;12.50;2.50;;;12.80;99.90;;;;;;5084423;28;20042;-74
2021/12/31 01:07:01;;;;;;;10.98;2.40;;;12.80;99.90;;;;;;5083431;28;20059;-74
2021/12/31 01:09:28;;;;;;;16.38;2.80;;;12.80;99.90;;;;;;5083980;28;20039;-73
2021/12/31 01:11:56;;;;;;;16.13;2.90;;;12.80;99.90;;;;;;5085650;28;20047;-74
2021/12/31 01:17:00;;;;;;;19.02;3.33;;;12.80;99.90;;;;;;5085641;28;20046;-74
2021/12/31 01:21:53;;;;;;;15.45;2.67;;;12.80;99.90;;;;;;5082781;28;20100;-74
2021/12/31 01:24:22;;;;;;;10.68;1.83;;;12.80;99.90;;;;;;5081720;28;20119;-74
2021/12/31 01:26:48;;;;;;;17.45;4.28;;;12.80;99.90;;;;;;5089689;28;20036;-75
2021/12/31 01:29:13;;;;;;;14.10;3.25;;;12.80;99.90;;;;;;5102204;28;20081;-74
2021/12/31 01:31:39;;;;;;;14.93;3.30;;;12.80;99.90;;;;;;5082841;28;20052;-74
2021/12/31 01:34:04;;;;;;;12.75;2.92;;;12.70;99.90;;;;;;5103986;28;20039;-74
2021/12/31 01:36:30;;;;;;;15.90;2.40;;;12.70;99.90;;;;;;5103545;28;20092;-74
2021/12/31 01:38:56;;;;;;;14.40;3.55;;;12.70;99.90;;;;;;5087510;28;20071;-74
2021/12/31 01:41:21;;;;;;;13.35;2.72;;;12.60;99.90;;;;;;5073679;28;20099;-74
2021/12/31 01:43:47;;;;;;;13.27;3.03;;;12.60;99.90;;;;;;5102436;28;20039;-74
2021/12/31 01:46:13;;;;;;;11.68;3.10;;;12.70;99.90;;;;;;5085008;28;20035;-74
2021/12/31 01:49:01;;;;;;;13.32;3.17;;;12.60;99.90;;;;;;5085194;28;20043;-74
2021/12/31 01:51:28;;;;;;;13.65;2.70;;;12.60;99.90;;;;;;5086144;28;20047;-73
2021/12/31 01:53:54;;;;;;;14.75;3.28;;;12.60;99.90;;;;;;5080698;28;20050;-74
2021/12/31 01:56:20;;;;;;;14.40;2.75;;;12.60;99.90;;;;;;5084692;28;20085;-74
2021/12/31 01:58:55;;;;;;;9.60;2.10;;;12.60;99.90;;;;;;5084099;28;20051;-74
2021/12/31 02:01:24;;;;;;;9.38;2.70;;;12.50;99.90;;;;;;5083236;28;20058;-74
2021/12/31 02:03:52;;;;;;;15.35;2.17;;;12.50;99.90;;;;;;5084167;28;20047;-73
2021/12/31 02:06:17;;;;;;;15.80;3.72;;;12.50;99.90;;;;;;5103463;28;20046;-74
2021/12/31 02:08:43;;;;;;;16.65;2.55;;;12.50;99.90;;;;;;5083200;28;20043;-74
2021/12/31 02:11:09;;;;;;;13.52;2.20;;;12.50;99.90;;;;;;5082796;28;20040;-74
2021/12/31 02:13:35;;;;;;;15.98;2.08;;;12.60;99.90;;;;;;5081247;28;20038;-74
2021/12/31 02:16:01;;;;;;;12.02;3.47;;;12.60;99.90;;;;;;5083538;28;20067;-74
2021/12/31 02:18:30;;;;;;;18.45;3.58;;;12.60;99.90;;;;;;5069773;28;21093;-74
2021/12/31 02:20:56;;;;;;;9.27;2.17;;;12.60;99.90;;;;;;5082462;28;20070;-74
2021/12/31 02:23:25;;;;;;;12.82;2.55;;;12.60;99.90;;;;;;5080454;28;20119;-74
2021/12/31 02:25:52;;;;;;;8.98;2.53;;;12.70;99.90;;;;;;5100277;28;20474;-74
2021/12/31 02:28:19;;;;;;;11.35;2.42;;;12.60;99.90;;;;;;5081411;28;20040;-74
2021/12/31 02:30:45;;;;;;;11.50;3.20;;;12.70;99.90;;;;;;5099742;28;20096;-74
2021/12/31 02:33:11;;;;;;;9.35;1.95;;;12.70;99.90;;;;;;5097853;28;20059;-74
2021/12/31 02:35:38;;;;;;;8.73;2.30;;;12.80;99.90;;;;;;5103228;28;20117;-74
2021/12/31 02:38:06;;;;;;;7.30;2.22;;;12.80;99.90;;;;;;5103376;28;20041;-74
2021/12/31 02:40:33;;;;;;;12.18;2.10;;;12.80;99.90;;;;;;5083685;28;20512;-75
2021/12/31 02:43:00;;;;;;;10.35;2.55;;;12.80;99.90;;;;;;5097782;28;20146;-74
2021/12/31 02:45:30;;;;;;;10.68;2.53;;;12.90;99.90;;;;;;5083063;28;20052;-73
2021/12/31 02:48:00;;;;;;;7.00;2.40;;;12.90;99.90;;;;;;5110639;27;20075;-74
2021/12/31 02:50:34;;;;;;;8.10;1.80;;;13.00;99.90;;;;;;5080045;28;20050;-74
2021/12/31 02:53:11;;;;;;;10.15;2.40;;;13.00;99.90;;;;;;5079373;28;20051;-74
2021/12/31 02:55:39;;;;;;;11.80;2.30;;;13.00;99.90;;;;;;5101575;28;20034;-74
2021/12/31 02:58:06;;;;;;;8.98;2.53;;;13.00;99.90;;;;;;5083836;28;20109;-74
2021/12/31 03:00:35;;;;;;;9.35;2.92;;;13.10;99.90;;;;;;5100926;28;20084;-74
2021/12/31 03:03:04;;;;;;;8.60;2.67;;;13.00;99.90;;;;;;5098910;28;20042;-74
2021/12/31 03:05:31;;;;;;;6.82;2.15;;;13.10;99.90;;;;;;5087691;28;20677;-74
2021/12/31 03:07:58;;;;;;;8.38;2.50;;;13.10;99.90;;;;;;5087736;28;20039;-74
2021/12/31 03:10:26;;;;;;;6.13;2.70;;;13.10;99.90;;;;;;5099343;28;20705;-74
2021/12/31 03:12:52;;;;;;;8.27;2.65;;;13.10;99.90;;;;;;5098877;28;20092;-74
2021/12/31 03:15:18;;;;;;;8.23;2.53;;;13.10;99.90;;;;;;5101343;28;20681;-74
2021/12/31 03:17:45;;;;;;;8.15;2.70;;;13.10;99.90;;;;;;5084161;28;20088;-74
2021/12/31 03:20:25;;;;;;;10.43;2.90;;;13.00;99.90;;;;;;5084067;28;20048;-74
2021/12/31 03:22:50;;;;;;;11.45;2.63;;;13.10;99.90;;;;;;5079487;28;20052;-74
2021/12/31 03:25:16;;;;;;;8.93;2.53;;;13.10;99.90;;;;;;5098990;28;20051;-74
2021/12/31 03:27:42;;;;;;;7.32;2.78;;;13.10;99.90;;;;;;5082156;28;20047;-74
2021/12/31 03:30:10;;;;;;;5.55;2.50;;;13.10;99.90;;;;;;5082285;28;20670;-74
2021/12/31 03:32:36;;;;;;;8.68;2.42;;;13.10;99.90;;;;;;5078976;28;20050;-74
2021/12/31 03:35:02;;;;;;;5.43;2.13;;;13.10;99.90;;;;;;5085268;28;20040;-74
2021/12/31 03:37:28;;;;;;;5.47;2.28;;;13.10;99.90;;;;;;5101935;28;20027;-74
2021/12/31 03:39:53;;;;;;;6.85;1.92;;;13.10;99.90;;;;;;5097453;28;20043;-74
2021/12/31 03:42:19;;;;;;;8.60;3.10;;;13.10;99.90;;;;;;5078703;28;20469;-74
2021/12/31 03:44:45;;;;;;;7.47;2.47;;;13.20;99.90;;;;;;5098632;28;20044;-74
2021/12/31 03:47:11;;;;;;;7.18;2.08;;;13.10;99.90;;;;;;5080110;28;20048;-74
2021/12/31 03:49:37;;;;;;;5.78;1.90;;;13.10;99.90;;;;;;5084742;28;20039;-74
2021/12/31 03:52:03;;;;;;;10.40;2.58;;;13.10;99.90;;;;;;5076961;28;20047;-74
2021/12/31 03:54:28;;;;;;;8.25;1.90;;;13.10;99.90;;;;;;5100858;28;20501;-74
2021/12/31 03:57:00;;;;;;;6.90;1.75;;;13.10;99.90;;;;;;5083091;28;20122;-74
2021/12/31 03:59:26;;;;;;;5.15;1.52;;;13.10;99.90;;;;;;5089052;28;20036;-74
2021/12/31 04:01:51;;;;;;;6.40;2.13;;;13.10;99.90;;;;;;5079424;28;20506;-74
2021/12/31 04:04:17;;;;;;;6.00;1.60;;;13.10;99.90;;;;;;5086524;28;20047;-74
2021/12/31 04:06:42;;;;;;;7.72;2.25;;;13.10;99.90;;;;;;5098825;28;20032;-74
2021/12/31 04:09:08;;;;;;;5.25;1.50;;;13.10;99.90;;;;;;5081840;28;20089;-74
2021/12/31 04:11:34;;;;;;;6.47;1.42;;;13.20;99.90;;;;;;5098569;28;20063;-74
2021/12/31 04:13:59;;;;;;;4.45;1.55;;;13.10;99.90;;;;;;5098937;28;20040;-74
2021/12/31 04:16:25;;;;;;;5.10;1.85;;;13.20;99.90;;;;;;5086408;28;20584;-75
2021/12/31 04:18:51;;;;;;;6.70;2.90;;;13.20;99.90;;;;;;5081983;28;20082;-74
2021/12/31 04:21:19;;;;;;;5.78;2.38;;;13.20;99.90;;;;;;5085253;28;20044;-74
2021/12/31 04:23:51;;;;;;;5.45;2.13;;;13.20;99.90;;;;;;5099652;28;20093;-74
2021/12/31 04:26:17;;;;;;;5.85;2.60;;;13.20;99.90;;;;;;5096433;28;20036;-74
2021/12/31 04:28:43;;;;;;;7.63;3.10;;;13.20;99.90;;;;;;5100386;28;20524;-74
2021/12/31 04:31:09;;;;;;;8.98;3.42;;;13.20;99.90;;;;;;5079095;28;20069;-75
2021/12/31 04:33:34;;;;;;;8.50;3.03;;;13.20;99.90;;;;;;5096832;28;20065;-74
2021/12/31 04:36:00;;;;;;;7.00;3.00;;;13.20;99.90;;;;;;5103628;28;20036;-75
2021/12/31 04:38:25;;;;;;;9.98;3.83;;;13.20;99.90;;;;;;5106533;28;20158;-74
2021/12/31 04:40:51;;;;;;;9.48;3.53;;;13.20;99.90;;;;;;5100764;28;20245;-74
2021/12/31 04:43:17;;;;;;;10.18;3.50;;;13.20;99.90;;;;;;5101824;28;20131;-74
2021/12/31 04:45:42;;;;;;;5.40;3.08;;;13.10;99.90;;;;;;5085869;28;20123;-75
2021/12/31 04:48:08;;;;;;;9.18;3.05;;;13.20;99.90;;;;;;5103387;28;20085;-74
2021/12/31 04:50:34;;;;;;;8.13;3.33;;;13.20;99.90;;;;;;5088702;28;20047;-74
2021/12/31 04:53:00;;;;;;;4.30;3.00;;;13.10;99.90;;;;;;5083807;28;20060;-75
2021/12/31 04:55:26;;;;;;;6.57;3.08;;;13.10;99.90;;;;;;5082465;28;20032;-75
2021/12/31 04:57:52;;;;;;;6.85;3.30;;;13.10;99.90;;;;;;5102342;28;20062;-75
2021/12/31 05:00:18;;;;;;;6.57;2.90;;;13.20;99.90;;;;;;5083523;28;20410;-76
2021/12/31 05:02:43;;;;;;;6.75;3.33;;;13.20;99.90;;;;;;5098402;28;20691;-76
2021/12/31 05:05:09;;;;;;;6.93;3.13;;;13.20;99.90;;;;;;5103192;28;20047;-75
2021/12/31 05:07:35;;;;;;;7.30;2.63;;;13.20;99.90;;;;;;5083004;28;20036;-75
2021/12/31 05:10:01;;;;;;;7.63;2.97;;;13.20;99.90;;;;;;5101385;28;20039;-75
2021/12/31 05:12:32;;;;;;;5.00;2.28;;;13.20;99.90;;;;;;5067792;28;20043;-75
2021/12/31 05:15:00;;;;;;;4.85;2.33;;;13.20;99.90;;;;;;5088465;28;20532;-75
2021/12/31 05:17:26;;;;;;;7.88;2.83;;;13.20;99.90;;;;;;5084818;28;20040;-76
2021/12/31 05:19:51;;;;;;;9.48;3.63;;;13.30;99.90;;;;;;5086893;28;20642;-76
2021/12/31 05:22:17;;;;;;;10.52;2.67;;;13.20;99.90;;;;;;5079580;28;20517;-76
2021/12/31 05:24:43;;;;;;;5.57;2.05;;;13.20;99.90;;;;;;5085013;27;20181;-76
2021/12/31 05:27:09;;;;;;;4.97;2.20;;;13.20;99.90;;;;;;5084783;28;20047;-76
2021/12/31 05:29:35;;;;;;;5.25;1.70;;;13.20;99.90;;;;;;5101966;28;20051;-76
2021/12/31 05:32:01;;;;;;;6.30;1.98;;;13.20;99.90;;;;;;5100318;27;20089;-76
2021/12/31 05:34:27;;;;;;;6.00;1.70;;;13.20;99.90;;;;;;5104003;28;20039;-76
2021/12/31 05:36:52;;;;;;;7.80;1.48;;;13.30;99.90;;;;;;5103128;28;20080;-76
2021/12/31 05:39:18;;;;;;;5.50;2.00;;;13.30;99.90;;;;;;5102643;28;20066;-76
2021/12/31 05:41:44;;;;;;;4.35;1.92;;;13.30;99.90;;;;;;5099100;28;20051;-76
2021/12/31 05:44:10;;;;;;;7.60;1.85;;;13.20;99.90;;;;;;5102377;28;20032;-76
2021/12/31 05:46:36;;;;;;;6.10;1.50;;;13.30;99.90;;;;;;5103626;28;20032;-76
2021/12/31 05:49:03;;;;;;;5.88;1.60;;;13.30;99.90;;;;;;5102745;28;20031;-76
2021/12/31 05:51:30;;;;;;;7.55;2.30;;;13.20;99.90;;;;;;5099717;27;20047;-76
2021/12/31 05:53:55;;;;;;;4.85;1.30;;;13.20;99.90;;;;;;5079894;28;20501;-75
2021/12/31 05:56:21;;;;;;;2.97;1.25;;;13.20;99.90;;;;;;5099566;27;20082;-77
2021/12/31 05:58:47;;;;;;;4.10;1.30;;;13.20;99.90;;;;;;5082016;28;20071;-76
2021/12/31 06:01:12;;;;;;;7.65;2.05;;;13.10;99.90;;;;;;5102918;28;20038;-76
2021/12/31 06:03:38;;;;;;;5.03;1.80;;;13.20;99.90;;;;;;5066594;28;20131;-76
2021/12/31 06:06:04;;;;;;;5.97;1.25;;;13.10;99.90;;;;;;5102568;28;20024;-76
2021/12/31 06:08:30;;;;;;;5.43;1.40;;;13.00;99.90;;;;;;5103644;28;20036;-76
2021/12/31 06:10:56;;;;;;;2.95;1.20;;;13.10;99.90;;;;;;5084078;28;20035;-76
2021/12/31 06:13:22;;;;;;;3.58;1.50;;;13.10;99.90;;;;;;5083608;28;20062;-76
2021/12/31 06:15:54;;;;;;;3.80;1.30;;;13.00;99.90;;;;;;5084501;28;20518;-76
2021/12/31 06:18:20;;;;;;;3.10;1.08;;;13.00;99.90;;;;;;5066676;28;20057;-76
2021/12/31 06:20:45;;;;;;;3.65;1.05;;;13.10;99.90;;;;;;5084583;28;20035;-76
2021/12/31 06:23:11;;;;;;;2.90;1.10;;;13.10;99.90;;;;;;5100121;28;20040;-76
2021/12/31 06:25:37;;;;;;;5.20;1.30;;;13.20;99.90;;;;;;5103458;28;20051;-76
2021/12/31 06:28:03;;;;;;;3.55;1.30;;;13.10;99.90;;;;;;5083984;28;20116;-76
2021/12/31 06:30:28;;;;;;;3.45;0.95;;;13.10;99.90;;;;;;5081827;28;20070;-76
2021/12/31 06:32:54;;;;;;;5.07;1.27;;;13.10;99.90;;;;;;5083903;28;20050;-76
2021/12/31 06:35:20;;;;;;;6.22;1.48;;;13.10;99.90;;;;;;5103168;28;20051;-76
2021/12/31 06:37:48;;;;;;;3.55;0.90;;;13.10;99.90;;;;;;5082786;28;20040;-76
2021/12/31 06:40:15;;;;;;;4.00;0.95;;;13.20;99.90;;;;;;5081726;28;20076;-76
2021/12/31 06:42:40;;;;;;;5.40;1.13;;;13.20;99.90;;;;;;5099115;28;20043;-75
2021/12/31 06:45:07;;;;;;;3.30;0.93;;;13.10;99.90;;;;;;5097891;28;20035;-76
2021/12/31 06:47:32;;;;;;;4.47;0.90;;;13.10;99.90;;;;;;5104963;28;20498;-76
2021/12/31 06:49:59;;;;;;;3.22;1.00;;;13.10;99.90;;;;;;5102905;28;20044;-76
2021/12/31 06:52:24;;;;;;;4.63;1.67;;;13.00;99.90;;;;;;5080059;28;20123;-76
2021/12/31 06:54:50;;;;;;;2.53;1.02;;;13.00;99.90;;;;;;5098580;28;20482;-76
2021/12/31 06:57:16;;;;;;;4.70;0.93;;;13.00;99.90;;;;;;5101727;28;20046;-75
2021/12/31 06:59:41;;;;;;;8.85;1.80;;;13.00;99.90;;;;;;5098591;28;20342;-75
2021/12/31 07:02:07;;;;;;;4.35;1.13;;;13.00;99.90;;;;;;5095542;28;20108;-76
2021/12/31 07:04:33;;;;;;;5.13;1.02;;;13.00;99.90;;;;;;5064056;28;20490;-75
2021/12/31 07:06:58;;;;;;;4.57;1.00;;;13.00;99.90;;;;;;5099287;28;20631;-76
2021/12/31 07:09:24;;;;;;;4.88;1.25;;;12.90;99.90;;;;;;5082084;28;20040;-76
2021/12/31 07:11:50;;;;;;;5.25;1.30;;;12.90;99.90;;;;;;5081097;28;20058;-75
2021/12/31 07:14:15;;;;;;;3.13;1.17;;;12.90;99.90;;;;;;5083137;28;20051;-75
2021/12/31 07:16:41;;;;;;;4.78;1.13;;;12.90;99.90;;;;;;5096981;27;20047;-76
2021/12/31 07:19:07;;;;;;;4.05;0.88;;;12.90;99.90;;;;;;5097005;28;20028;-76
2021/12/31 07:21:32;;;;;;;3.33;1.23;;;12.80;99.90;;;;;;5095988;28;20054;-75
2021/12/31 07:23:58;;;;;;;4.95;1.58;;;12.80;99.90;;;;;;5095038;28;20059;-76
2021/12/31 07:26:24;;;;;;;4.63;1.00;;;12.80;99.90;;;;;;5097821;28;20047;-76
2021/12/31 07:28:49;;;;;;;3.10;1.50;;;12.80;99.90;;;;;;5095512;28;20047;-75
2021/12/31 07:31:16;;;;;;;3.67;0.95;;;12.70;99.90;;;;;;5098454;28;20132;-74
2021/12/31 07:33:42;;;;;;;4.93;1.55;;;12.80;99.90;;;;;;5077635;28;20047;-74
2021/12/31 07:36:09;;;;;;;6.40;1.30;;;12.80;99.90;;;;;;5076873;28;20044;-73
2021/12/31 07:38:37;;;;;;;9.30;1.75;;;12.80;99.90;;;;;;5076750;28;20035;-74
2021/12/31 07:41:04;;;;;;;3.67;1.23;;;12.70;99.90;;;;;;5096779;28;20089;-74
2021/12/31 07:43:30;;;;;;;3.53;1.42;;;12.70;99.90;;;;;;5074720;28;20048;-74
2021/12/31 07:45:56;;;;;;;4.95;1.02;;;12.70;99.90;;;;;;5081297;28;20039;-74
2021/12/31 07:48:22;;;;;;;3.40;1.30;;;12.70;99.90;;;;;;5077972;28;20131;-74
2021/12/31 07:50:48;;;;;;;6.78;1.73;;;12.70;99.90;;;;;;5080740;28;20043;-75
2021/12/31 07:53:14;;;;;;;5.07;1.52;;;12.70;99.90;;;;;;5077741;28;20730;-74
2021/12/31 07:55:41;;;;;;;5.60;1.42;;;12.70;99.90;;;;;;5078955;28;20043;-74
2021/12/31 07:58:07;;;;;;;6.28;1.58;;;12.70;99.90;;;;;;5096040;28;20059;-74
2021/12/31 08:00:33;;;;;;;5.47;1.27;;;12.70;99.90;;;;;;5077269;28;20120;-74
2021/12/31 08:03:00;;;;;;;5.18;1.48;;;12.70;99.90;;;;;;5077174;28;20047;-74
2021/12/31 08:05:27;;;;;;;5.88;1.33;;;12.70;99.90;;;;;;5077029;28;20086;-74
2021/12/31 08:07:53;;;;;;;3.75;1.52;;;12.70;99.90;;;;;;5079679;28;20077;-75
2021/12/31 08:10:19;;;;;;;4.75;1.73;;;12.70;99.90;;;;;;5094161;28;20039;-74
2021/12/31 08:12:45;;;;;;;4.47;1.30;;;12.70;99.90;;;;;;5091716;28;20051;-75
2021/12/31 08:15:12;;;;;;;5.93;1.05;;;12.80;99.90;;;;;;5081144;28;20048;-74
2021/12/31 08:17:38;;;;;;;4.22;1.08;;;12.80;99.90;;;;;;5096848;28;20044;-74
2021/12/31 08:20:04;;;;;;;4.60;1.20;;;12.80;99.90;;;;;;5082723;28;20044;-74
2021/12/31 08:22:30;;;;;;;5.07;1.40;;;12.80;99.90;;;;;;5076829;28;20414;-74
2021/12/31 08:24:56;;;;;;;3.75;1.20;;;12.80;99.90;;;;;;5082574;28;20047;-74
2021/12/31 08:27:22;;;;;;;4.38;1.08;;;12.90;99.90;;;;;;5081715;28;20036;-74
2021/12/31 08:29:48;;;;;;;3.63;1.48;;;12.90;99.90;;;;;;5096568;28;20088;-74
2021/12/31 08:32:14;;;;;;;5.20;1.27;;;12.90;99.90;;;;;;5094689;28;20039;-74
2021/12/31 08:34:40;;;;;;;3.15;1.23;;;12.90;99.90;;;;;;5095591;28;20096;-74
2021/12/31 08:37:06;;;;;;;6.05;1.58;;;12.90;99.90;;;;;;5082849;28;20075;-74
2021/12/31 08:39:32;;;;;;;3.88;1.17;;;12.90;99.90;;;;;;5095098;28;20119;-75
2021/12/31 08:42:00;;;;;;;4.10;1.13;;;12.90;99.90;;;;;;5093501;28;20733;-75
2021/12/31 08:44:27;;;;;;;4.53;1.33;;;12.90;99.90;;;;;;5097566;28;20089;-75
2021/12/31 08:46:53;;;;;;;2.90;1.00;;;12.90;99.90;;;;;;5065663;28;20048;-75
2021/12/31 08:49:20;;;;;;;3.97;1.50;;;12.90;99.90;;;;;;5107131;28;20043;-74
2021/12/31 08:51:46;;;;;;;3.05;1.35;;;13.00;99.90;;;;;;5079218;28;20052;-74
2021/12/31 08:54:12;;;;;;;7.90;3.38;;;12.90;99.90;;;;;;5098313;28;20067;-76
2021/12/31 08:56:37;;;;;;;6.50;1.13;;;12.90;99.90;;;;;;5081378;28;20043;-75
2021/12/31 08:59:03;;;;;;;7.97;1.55;;;12.90;99.90;;;;;;5100486;28;20043;-75
2021/12/31 09:01:29;;;;;;;4.43;1.27;;;12.90;99.90;;;;;;5080032;28;20405;-75
2021/12/31 09:03:55;;;;;;;4.30;1.13;;;12.90;99.90;;;;;;5098015;28;20040;-75
2021/12/31 09:06:21;;;;;;;8.15;1.00;;;12.90;99.90;;;;;;5098147;28;20040;-75
2021/12/31 09:08:59;;;;;;;2.63;1.30;;;12.90;99.90;;;;;;5099716;28;20467;-75
2021/12/31 09:11:24;;;;;;;6.07;1.40;;;12.90;99.90;;;;;;5103550;28;20374;-74
2021/12/31 09:13:53;;;;;;;5.20;1.40;;;12.90;99.90;;;;;;5100945;28;20057;-75
2021/12/31 09:16:19;;;;;;;6.45;1.88;;;12.80;99.90;;;;;;5082325;28;20036;-75
2021/12/31 09:18:45;;;;;;;3.30;1.33;;;12.90;99.90;;;;;;5101206;28;20047;-75
2021/12/31 09:21:10;;;;;;;5.50;1.27;;;12.80;99.90;;;;;;5103894;28;20118;-75
2021/12/31 09:23:36;;;;;;;3.85;1.40;;;12.80;99.90;;;;;;5097437;28;20084;-75
2021/12/31 09:26:01;;;;;;;5.20;1.90;;;12.80;99.90;;;;;;5088475;28;20043;-75
2021/12/31 09:28:27;;;;;;;3.80;1.55;;;12.90;99.90;;;;;;5105302;27;20032;-75
2021/12/31 09:30:53;;;;;;;4.10;1.45;;;12.90;99.90;;;;;;5088328;28;20086;-75
2021/12/31 09:33:19;;;;;;;5.93;1.70;;;12.90;99.90;;;;;;5099479;28;20585;-75
2021/12/31 09:35:44;;;;;;;6.30;2.05;;;12.90;99.90;;;;;;5104442;28;20063;-74
2021/12/31 09:38:10;;;;;;;4.55;1.30;;;12.90;99.90;;;;;;5086525;28;20035;-75
2021/12/31 09:40:37;;;;;;;7.68;1.30;;;13.00;99.90;;;;;;5087141;28;20039;-75
2021/12/31 09:43:11;;;;;;;4.75;1.35;;;13.00;99.90;;;;;;5100085;28;20082;-76
2021/12/31 09:45:38;;;;;;;2.42;0.77;;;13.00;99.90;;;;;;5101067;28;20043;-75
2021/12/31 09:48:19;;;;;;;5.60;1.55;;;13.10;99.90;;;;;;5102716;28;20047;-75
2021/12/31 09:50:48;;;;;;;8.60;1.85;;;13.00;99.90;;;;;;5106214;28;20040;-75
2021/12/31 09:53:16;;;;;;;2.13;1.10;;;13.00;99.90;;;;;;5070350;28;20047;-75
2021/12/31 09:55:47;;;;;;;3.55;1.05;;;13.00;99.90;;;;;;5103018;28;20028;-75
2021/12/31 09:58:15;;;;;;;3.50;1.73;;;13.00;99.90;;;;;;5105247;28;20035;-75
2021/12/31 10:00:43;;;;;;;5.05;1.33;;;12.90;99.90;;;;;;5087324;28;20036;-75
2021/12/31 10:03:09;;;;;;;3.83;1.40;;;12.90;99.90;;;;;;5081268;28;20748;-75
2021/12/31 10:05:41;;;;;;;4.40;1.00;;;12.90;99.90;;;;;;5084540;28;20044;-75
2021/12/31 10:08:25;;;;;;;5.55;1.30;;;12.90;99.90;;;;;;5085443;28;20050;-75
2021/12/31 10:11:03;;;;;;;2.95;1.38;;;12.90;99.90;;;;;;5085568;28;20051;-74
2021/12/31 10:13:31;;;;;;;5.75;1.77;;;12.90;99.90;;;;;;5081148;28;20608;-75
2021/12/31 10:15:57;;;;;;;5.20;1.52;;;12.90;99.90;;;;;;5085407;28;20044;-75
2021/12/31 10:18:32;;;;;;;4.28;1.35;;;12.90;99.90;;;;;;5095617;27;20628;-75
2021/12/31 10:20:59;;;;;;;4.47;1.70;;;12.90;99.90;;;;;;5100355;27;20031;-75
2021/12/31 10:23:24;;;;;;;2.65;1.30;;;12.90;99.90;;;;;;5081170;28;20035;-75
2021/12/31 10:25:50;;;;;;;5.50;1.50;;;12.90;99.90;;;;;;5099976;28;20092;-75
2021/12/31 10:28:17;;;;;;;3.55;1.15;;;12.90;99.90;;;;;;5086216;28;20036;-75
2021/12/31 10:30:43;;;;;;;4.80;1.85;;;12.90;99.90;;;;;;5099625;27;20044;-76
2021/12/31 10:33:10;;;;;;;4.57;1.63;;;12.90;99.90;;;;;;5094171;28;20402;-75
2021/12/31 10:35:42;;;;;;;3.92;1.20;;;12.90;99.90;;;;;;5082179;28;20046;-75
2021/12/31 10:38:11;;;;;;;4.38;1.40;;;12.90;99.90;;;;;;5101967;27;20043;-75
2021/12/31 10:40:40;;;;;;;5.15;1.83;;;12.90;99.90;;;;;;5083487;28;20039;-75
2021/12/31 10:43:18;;;;;;;4.97;1.50;;;12.90;99.90;;;;;;5077633;28;20044;-75
2021/12/31 10:45:57;;;;;;;5.07;1.70;;;12.90;99.90;;;;;;5083819;28;20058;-75
2021/12/31 10:48:39;;;;;;;5.18;1.73;;;12.90;99.90;;;;;;5084028;28;20060;-75
2021/12/31 10:51:05;;;;;;;7.60;2.13;;;12.90;99.90;;;;;;5082545;28;20207;-75
2021/12/31 10:53:34;;;;;;;4.85;1.88;;;12.90;99.90;;;;;;5081730;28;20065;-75
2021/12/31 10:56:14;;;;;;;6.63;2.20;;;12.90;99.90;;;;;;5101114;28;20062;-75
2021/12/31 10:58:43;;;;;;;5.00;2.63;;;12.80;99.90;;;;;;5099540;28;20036;-75
2021/12/31 11:01:15;;;;;;;6.65;2.10;;;12.80;99.90;;;;;;5083959;28;20085;-75
2021/12/31 11:03:42;;;;;;;7.55;2.15;;;12.70;99.90;;;;;;5092450;28;20084;-75
2021/12/31 11:06:13;;;;;;;4.60;2.13;;;12.80;99.90;;;;;;5081997;28;20120;-75
2021/12/31 11:08:44;;;;;;;6.57;2.67;;;12.70;99.90;;;;;;5097455;28;20882;-75
2021/12/31 11:11:11;;;;;;;6.72;2.75;;;12.70;99.90;;;;;;5083479;28;20968;-75
2021/12/31 11:13:37;;;;;;;5.70;2.17;;;12.60;99.90;;;;;;5080598;28;20039;-75
2021/12/31 11:16:03;;;;;;;7.10;3.03;;;12.60;99.90;;;;;;5109609;27;20051;-75
2021/12/31 11:18:29;;;;;;;7.35;2.80;;;12.50;99.90;;;;;;5099142;28;20032;-76
2021/12/31 11:21:01;;;;;;;4.57;2.08;;;12.50;99.90;;;;;;5084111;28;20516;-76
2021/12/31 11:23:30;;;;;;;5.20;2.75;;;12.40;99.90;;;;;;5078099;28;20056;-75
2021/12/31 11:26:00;;;;;;;8.02;2.85;;;12.50;99.90;;;;;;5098920;28;20354;-76
2021/12/31 11:28:31;;;;;;;6.50;2.83;;;12.40;99.90;;;;;;5098566;28;20102;-75
2021/12/31 11:31:16;;;;;;;6.45;2.60;;;12.40;99.90;;;;;;5098720;28;20035;-75
2021/12/31 11:33:43;;;;;;;6.72;2.50;;;12.40;99.90;;;;;;5078881;28;20138;-76
2021/12/31 11:36:11;;;;;;;6.18;2.67;;;12.40;99.90;;;;;;5096629;28;20051;-75
2021/12/31 11:38:41;;;;;;;5.90;2.70;;;12.40;99.90;;;;;;5080428;28;20087;-76
2021/12/31 11:41:37;;;;;;;7.18;3.13;;;12.40;99.90;;;;;;5081701;28;20035;-75
2021/12/31 11:44:07;;;;;;;7.53;2.40;;;12.30;99.90;;;;;;5060994;28;20189;-76
2021/12/31 11:46:37;;;;;;;3.67;2.00;;;12.30;99.90;;;;;;5097496;28;20161;-76
2021/12/31 11:49:08;;;;;;;8.82;2.38;;;12.30;99.90;;;;;;5078619;28;20131;-76
2021/12/31 11:51:38;;;;;;;8.15;3.28;;;12.30;99.90;;;;;;5096441;28;21327;-76
2021/12/31 11:54:06;;;;;;;3.70;2.55;;;12.20;99.90;;;;;;5096077;28;20052;-76
2021/12/31 11:56:43;;;;;;;7.05;3.28;;;12.20;99.90;;;;;;5081332;28;20127;-76
2021/12/31 11:59:09;;;;;;;10.13;3.63;;;12.30;99.90;;;;;;5080392;28;21601;-75
2021/12/31 12:01:43;;;;;;;8.20;4.18;;;12.30;99.90;;;;;;5095254;28;20051;-75
2021/12/31 12:04:38;;;;;;;7.93;3.45;;;12.30;99.90;;;;;;5080497;28;20060;-75
2021/12/31 12:07:22;;;;;;;7.60;3.72;;;12.20;99.90;;;;;;5098144;28;20096;-75
2021/12/31 12:09:48;;;;;;;8.68;3.42;;;12.20;99.90;;;;;;5077504;28;20055;-75
2021/12/31 12:12:18;;;;;;;9.15;4.13;;;12.20;99.90;;;;;;5095603;28;20047;-76
2021/12/31 12:14:55;;;;;;;8.23;3.58;;;12.20;99.90;;;;;;5078547;28;20048;-76
2021/12/31 12:17:30;;;;;;;9.90;3.70;;;12.20;99.90;;;;;;5084362;28;20039;-75
2021/12/31 12:20:02;;;;;;;10.95;4.75;;;12.20;99.90;;;;;;5079581;28;20071;-75
2021/12/31 12:22:37;;;;;;;8.98;4.38;;;12.10;99.90;;;;;;5096096;28;20086;-76
2021/12/31 12:25:15;;;;;;;9.68;4.70;;;12.10;99.90;;;;;;5096886;28;20121;-76
2021/12/31 12:27:42;;;;;;;11.32;4.07;;;12.10;99.90;;;;;;5099037;28;20063;-75
2021/12/31 12:30:10;;;;;;;7.03;3.75;;;12.10;99.90;;;;;;5098262;28;20036;-75
2021/12/31 12:32:40;;;;;;;11.82;5.30;;;12.00;99.90;;;;;;5079084;28;20058;-76
2021/12/31 12:35:23;;;;;;;8.82;4.25;;;12.00;99.90;;;;;;5099817;28;20839;-75
2021/12/31 12:38:00;;;;;;;6.93;4.38;;;12.00;99.90;;;;;;5083112;28;20031;-75
2021/12/31 12:40:41;;;;;;;11.40;5.32;;;12.00;99.90;;;;;;5098170;28;20367;-75
2021/12/31 12:43:13;;;;;;;11.93;5.63;;;12.00;99.90;;;;;;5097449;28;20088;-75
2021/12/31 12:45:44;;;;;;;7.35;4.80;;;12.00;99.90;;;;;;5080086;28;20044;-75
2021/12/31 12:48:10;;;;;;;10.15;4.57;;;11.90;99.90;;;;;;5081025;28;20043;-75
2021/12/31 12:50:37;;;;;;;11.32;5.03;;;11.90;99.90;;;;;;5096083;28;20050;-75
2021/12/31 12:53:03;;;;;;;8.38;4.30;;;11.90;99.90;;;;;;5094632;28;20081;-75